sensor_id;sensor_type;location;lat;lon;timestamp;P1;durP1;ratioP1;P2;durP2;ratioP2
2388;SDS011;1205;47.984;7.668;2022-08-07T00:01:00;1.73;;;1.27;;
2388;SDS011;1205;47.984;7.668;2022-08-07T00:03:26;5.10;;;1.13;;
2388;SDS011;1205;47.984;7.668;2022-08-07T00:05:53;1.60;;;1.50;;
2388;SDS011;1205;47.984;7.668;2022-08-07T00:08:19;1.60;;;1.13;;
2388;SDS011;1205;47.984;7.668;2022-08-07T00:10:46;2.00;;;1.13;;
2388;SDS011;1205;47.984;7.668;2022-08-07T00:13:15;1.30;;;1.20;;
2388;SDS011;1205;47.984;7.668;2022-08-07T00:15:42;3.03;;;1.07;;
2388;SDS011;1205;47.984;7.668;2022-08-07T00:18:08;3.17;;;1.43;;
2388;SDS011;1205;47.984;7.668;2022-08-07T00:20:35;4.30;;;1.67;;
2388;SDS011;1205;47.984;7.668;2022-08-07T00:23:01;1.43;;;1.33;;
2388;SDS011;1205;47.984;7.668;2022-08-07T00:25:28;2.03;;;1.30;;
2388;SDS011;1205;47.984;7.668;2022-08-07T00:27:54;3.60;;;1.30;;
2388;SDS011;1205;47.984;7.668;2022-08-07T00:30:19;2.60;;;1.30;;
2388;SDS011;1205;47.984;7.668;2022-08-07T00:32:47;5.80;;;1.23;;
2388;SDS011;1205;47.984;7.668;2022-08-07T00:35:13;1.70;;;1.30;;
2388;SDS011;1205;47.984;7.668;2022-08-07T00:37:38;1.20;;;1.00;;
2388;SDS011;1205;47.984;7.668;2022-08-07T00:40:04;1.10;;;1.10;;
2388;SDS011;1205;47.984;7.668;2022-08-07T00:42:31;6.20;;;1.23;;
2388;SDS011;1205;47.984;7.668;2022-08-07T00:44:57;1.97;;;1.40;;
2388;SDS011;1205;47.984;7.668;2022-08-07T00:47:23;2.57;;;1.37;;
2388;SDS011;1205;47.984;7.668;2022-08-07T00:49:48;1.87;;;0.93;;
2388;SDS011;1205;47.984;7.668;2022-08-07T00:52:14;4.33;;;1.50;;
2388;SDS011;1205;47.984;7.668;2022-08-07T00:54:40;1.20;;;1.10;;
2388;SDS011;1205;47.984;7.668;2022-08-07T00:57:05;2.67;;;1.70;;
2388;SDS011;1205;47.984;7.668;2022-08-07T00:59:33;2.77;;;1.60;;
2388;SDS011;1205;47.984;7.668;2022-08-07T01:01:58;1.63;;;1.20;;
2388;SDS011;1205;47.984;7.668;2022-08-07T01:04:26;3.83;;;1.57;;
2388;SDS011;1205;47.984;7.668;2022-08-07T01:06:52;4.20;;;1.30;;
2388;SDS011;1205;47.984;7.668;2022-08-07T01:09:19;1.73;;;1.30;;
2388;SDS011;1205;47.984;7.668;2022-08-07T01:11:45;3.50;;;1.57;;
2388;SDS011;1205;47.984;7.668;2022-08-07T01:14:11;1.43;;;1.33;;
2388;SDS011;1205;47.984;7.668;2022-08-07T01:16:36;3.37;;;1.30;;
2388;SDS011;1205;47.984;7.668;2022-08-07T01:19:04;1.67;;;1.40;;
2388;SDS011;1205;47.984;7.668;2022-08-07T01:21:30;6.53;;;1.27;;
2388;SDS011;1205;47.984;7.668;2022-08-07T01:23:55;1.03;;;0.93;;
2388;SDS011;1205;47.984;7.668;2022-08-07T01:26:21;2.70;;;1.30;;
2388;SDS011;1205;47.984;7.668;2022-08-07T01:28:49;1.27;;;1.00;;
2388;SDS011;1205;47.984;7.668;2022-08-07T01:31:16;4.73;;;1.10;;
2388;SDS011;1205;47.984;7.668;2022-08-07T01:33:43;3.10;;;1.33;;
2388;SDS011;1205;47.984;7.668;2022-08-07T01:36:10;2.70;;;1.17;;
2388;SDS011;1205;47.984;7.668;2022-08-07T01:38:37;1.27;;;1.00;;
2388;SDS011;1205;47.984;7.668;2022-08-07T01:41:04;4.03;;;1.50;;
2388;SDS011;1205;47.984;7.668;2022-08-07T01:43:33;1.20;;;1.10;;
2388;SDS011;1205;47.984;7.668;2022-08-07T01:46:00;3.07;;;1.23;;
2388;SDS011;1205;47.984;7.668;2022-08-07T01:48:27;1.30;;;1.20;;
2388;SDS011;1205;47.984;7.668;2022-08-07T01:50:56;2.90;;;1.20;;
2388;SDS011;1205;47.984;7.668;2022-08-07T01:53:26;5.13;;;1.23;;
2388;SDS011;1205;47.984;7.668;2022-08-07T01:55:54;8.43;;;1.40;;
2388;SDS011;1205;47.984;7.668;2022-08-07T01:58:22;6.53;;;1.20;;
2388;SDS011;1205;47.984;7.668;2022-08-07T02:00:56;1.50;;;0.90;;
2388;SDS011;1205;47.984;7.668;2022-08-07T02:03:26;5.60;;;1.40;;
2388;SDS011;1205;47.984;7.668;2022-08-07T02:05:58;1.30;;;1.20;;
2388;SDS011;1205;47.984;7.668;2022-08-07T02:08:28;4.07;;;1.30;;
2388;SDS011;1205;47.984;7.668;2022-08-07T02:10:57;3.63;;;1.00;;
2388;SDS011;1205;47.984;7.668;2022-08-07T02:13:26;4.90;;;1.30;;
2388;SDS011;1205;47.984;7.668;2022-08-07T02:15:54;2.37;;;1.57;;
2388;SDS011;1205;47.984;7.668;2022-08-07T02:18:22;2.30;;;2.03;;
2388;SDS011;1205;47.984;7.668;2022-08-07T02:20:52;2.67;;;2.00;;
2388;SDS011;1205;47.984;7.668;2022-08-07T02:23:21;6.43;;;2.10;;
2388;SDS011;1205;47.984;7.668;2022-08-07T02:25:49;8.67;;;3.50;;
2388;SDS011;1205;47.984;7.668;2022-08-07T02:28:17;9.60;;;3.50;;
2388;SDS011;1205;47.984;7.668;2022-08-07T02:30:44;6.70;;;3.00;;
2388;SDS011;1205;47.984;7.668;2022-08-07T02:33:11;7.30;;;2.50;;
2388;SDS011;1205;47.984;7.668;2022-08-07T02:35:39;2.53;;;1.40;;
2388;SDS011;1205;47.984;7.668;2022-08-07T02:38:06;5.40;;;1.60;;
2388;SDS011;1205;47.984;7.668;2022-08-07T02:40:34;3.30;;;1.27;;
2388;SDS011;1205;47.984;7.668;2022-08-07T02:43:02;3.30;;;1.50;;
2388;SDS011;1205;47.984;7.668;2022-08-07T02:45:30;2.27;;;1.37;;
2388;SDS011;1205;47.984;7.668;2022-08-07T02:47:57;1.33;;;1.23;;
2388;SDS011;1205;47.984;7.668;2022-08-07T02:50:23;2.93;;;1.00;;
2388;SDS011;1205;47.984;7.668;2022-08-07T02:55:25;4.03;;;1.40;;
2388;SDS011;1205;47.984;7.668;2022-08-07T02:57:53;2.20;;;1.30;;
2388;SDS011;1205;47.984;7.668;2022-08-07T03:00:23;1.73;;;1.00;;
2388;SDS011;1205;47.984;7.668;2022-08-07T03:02:50;1.87;;;1.10;;
2388;SDS011;1205;47.984;7.668;2022-08-07T03:05:17;1.43;;;1.30;;
2388;SDS011;1205;47.984;7.668;2022-08-07T03:07:43;2.17;;;1.50;;
2388;SDS011;1205;47.984;7.668;2022-08-07T03:10:11;5.80;;;2.90;;
2388;SDS011;1205;47.984;7.668;2022-08-07T03:12:37;6.67;;;1.90;;
2388;SDS011;1205;47.984;7.668;2022-08-07T03:15:05;6.23;;;2.13;;
2388;SDS011;1205;47.984;7.668;2022-08-07T03:17:31;4.23;;;1.70;;
2388;SDS011;1205;47.984;7.668;2022-08-07T03:19:58;2.90;;;1.70;;
2388;SDS011;1205;47.984;7.668;2022-08-07T03:22:25;1.67;;;1.47;;
2388;SDS011;1205;47.984;7.668;2022-08-07T03:24:52;1.83;;;1.17;;
2388;SDS011;1205;47.984;7.668;2022-08-07T03:27:18;1.00;;;0.83;;
2388;SDS011;1205;47.984;7.668;2022-08-07T03:29:46;1.07;;;1.00;;
2388;SDS011;1205;47.984;7.668;2022-08-07T03:32:15;2.13;;;1.20;;
2388;SDS011;1205;47.984;7.668;2022-08-07T03:34:45;1.07;;;0.93;;
2388;SDS011;1205;47.984;7.668;2022-08-07T03:37:13;1.17;;;1.10;;
2388;SDS011;1205;47.984;7.668;2022-08-07T03:39:45;1.60;;;0.90;;
2388;SDS011;1205;47.984;7.668;2022-08-07T03:42:12;1.83;;;0.97;;
2388;SDS011;1205;47.984;7.668;2022-08-07T03:44:39;5.30;;;1.10;;
2388;SDS011;1205;47.984;7.668;2022-08-07T03:47:05;0.80;;;0.80;;
2388;SDS011;1205;47.984;7.668;2022-08-07T03:49:32;1.37;;;1.13;;
2388;SDS011;1205;47.984;7.668;2022-08-07T03:51:59;7.87;;;1.50;;
2388;SDS011;1205;47.984;7.668;2022-08-07T03:54:25;0.93;;;0.93;;
2388;SDS011;1205;47.984;7.668;2022-08-07T03:56:52;2.30;;;1.07;;
2388;SDS011;1205;47.984;7.668;2022-08-07T03:59:19;2.30;;;1.43;;
2388;SDS011;1205;47.984;7.668;2022-08-07T04:01:45;1.23;;;1.10;;
2388;SDS011;1205;47.984;7.668;2022-08-07T04:04:14;1.77;;;1.10;;
2388;SDS011;1205;47.984;7.668;2022-08-07T04:06:41;0.90;;;0.80;;
2388;SDS011;1205;47.984;7.668;2022-08-07T04:09:08;1.10;;;1.10;;
2388;SDS011;1205;47.984;7.668;2022-08-07T04:11:35;4.53;;;1.73;;
2388;SDS011;1205;47.984;7.668;2022-08-07T04:14:02;2.40;;;1.27;;
2388;SDS011;1205;47.984;7.668;2022-08-07T04:16:29;4.47;;;1.23;;
2388;SDS011;1205;47.984;7.668;2022-08-07T04:18:55;1.17;;;0.90;;
2388;SDS011;1205;47.984;7.668;2022-08-07T04:21:21;1.23;;;1.23;;
2388;SDS011;1205;47.984;7.668;2022-08-07T04:23:46;0.83;;;0.83;;
2388;SDS011;1205;47.984;7.668;2022-08-07T04:26:14;1.57;;;1.10;;
2388;SDS011;1205;47.984;7.668;2022-08-07T04:28:40;1.60;;;1.10;;
2388;SDS011;1205;47.984;7.668;2022-08-07T04:31:06;4.67;;;1.67;;
2388;SDS011;1205;47.984;7.668;2022-08-07T04:33:33;1.77;;;1.67;;
2388;SDS011;1205;47.984;7.668;2022-08-07T04:36:01;2.60;;;1.20;;
2388;SDS011;1205;47.984;7.668;2022-08-07T04:38:28;2.63;;;1.20;;
2388;SDS011;1205;47.984;7.668;2022-08-07T04:40:54;4.00;;;1.43;;
2388;SDS011;1205;47.984;7.668;2022-08-07T04:43:26;1.40;;;1.30;;
2388;SDS011;1205;47.984;7.668;2022-08-07T04:45:57;1.10;;;1.07;;
2388;SDS011;1205;47.984;7.668;2022-08-07T04:51:27;3.23;;;1.50;;
2388;SDS011;1205;47.984;7.668;2022-08-07T05:05:09;1.60;;;1.00;;
2388;SDS011;1205;47.984;7.668;2022-08-07T05:07:43;2.23;;;1.13;;
2388;SDS011;1205;47.984;7.668;2022-08-07T05:15:44;6.13;;;1.50;;
2388;SDS011;1205;47.984;7.668;2022-08-07T05:18:27;1.20;;;1.10;;
2388;SDS011;1205;47.984;7.668;2022-08-07T05:21:04;0.97;;;0.97;;
2388;SDS011;1205;47.984;7.668;2022-08-07T05:23:41;4.30;;;1.30;;
2388;SDS011;1205;47.984;7.668;2022-08-07T05:26:16;1.63;;;1.53;;
2388;SDS011;1205;47.984;7.668;2022-08-07T05:28:44;1.83;;;1.30;;
2388;SDS011;1205;47.984;7.668;2022-08-07T05:31:12;1.50;;;1.13;;
2388;SDS011;1205;47.984;7.668;2022-08-07T05:33:40;1.50;;;1.10;;
2388;SDS011;1205;47.984;7.668;2022-08-07T05:36:07;3.90;;;1.63;;
2388;SDS011;1205;47.984;7.668;2022-08-07T05:38:34;4.77;;;1.10;;
2388;SDS011;1205;47.984;7.668;2022-08-07T05:41:01;3.87;;;1.67;;
2388;SDS011;1205;47.984;7.668;2022-08-07T05:43:27;1.20;;;1.10;;
2388;SDS011;1205;47.984;7.668;2022-08-07T05:45:53;3.60;;;1.20;;
2388;SDS011;1205;47.984;7.668;2022-08-07T05:48:21;1.27;;;1.10;;
2388;SDS011;1205;47.984;7.668;2022-08-07T05:50:47;1.10;;;1.00;;
2388;SDS011;1205;47.984;7.668;2022-08-07T05:53:13;3.47;;;1.20;;
2388;SDS011;1205;47.984;7.668;2022-08-07T05:55:40;1.77;;;1.30;;
2388;SDS011;1205;47.984;7.668;2022-08-07T05:58:06;4.90;;;1.23;;
2388;SDS011;1205;47.984;7.668;2022-08-07T06:00:34;1.30;;;1.20;;
2388;SDS011;1205;47.984;7.668;2022-08-07T06:03:04;1.23;;;1.10;;
2388;SDS011;1205;47.984;7.668;2022-08-07T06:05:32;0.90;;;0.90;;
2388;SDS011;1205;47.984;7.668;2022-08-07T06:07:58;1.67;;;1.10;;
2388;SDS011;1205;47.984;7.668;2022-08-07T06:10:25;1.17;;;1.03;;
2388;SDS011;1205;47.984;7.668;2022-08-07T06:12:52;2.27;;;1.27;;
2388;SDS011;1205;47.984;7.668;2022-08-07T06:15:18;4.23;;;1.07;;
2388;SDS011;1205;47.984;7.668;2022-08-07T06:17:46;2.70;;;1.00;;
2388;SDS011;1205;47.984;7.668;2022-08-07T06:20:12;1.50;;;1.13;;
2388;SDS011;1205;47.984;7.668;2022-08-07T06:22:39;1.17;;;1.17;;
2388;SDS011;1205;47.984;7.668;2022-08-07T06:25:06;0.80;;;0.80;;
2388;SDS011;1205;47.984;7.668;2022-08-07T06:27:32;6.33;;;1.10;;
2388;SDS011;1205;47.984;7.668;2022-08-07T06:29:59;1.10;;;1.10;;
2388;SDS011;1205;47.984;7.668;2022-08-07T06:32:24;3.90;;;1.67;;
2388;SDS011;1205;47.984;7.668;2022-08-07T06:34:50;2.83;;;1.10;;
2388;SDS011;1205;47.984;7.668;2022-08-07T06:37:16;1.20;;;1.10;;
2388;SDS011;1205;47.984;7.668;2022-08-07T06:39:42;2.73;;;1.10;;
2388;SDS011;1205;47.984;7.668;2022-08-07T06:42:13;1.73;;;1.10;;
2388;SDS011;1205;47.984;7.668;2022-08-07T06:44:43;0.87;;;0.87;;
2388;SDS011;1205;47.984;7.668;2022-08-07T06:47:11;0.97;;;0.97;;
2388;SDS011;1205;47.984;7.668;2022-08-07T06:49:38;2.13;;;0.97;;
2388;SDS011;1205;47.984;7.668;2022-08-07T06:52:05;2.20;;;1.10;;
2388;SDS011;1205;47.984;7.668;2022-08-07T06:54:32;2.00;;;1.10;;
2388;SDS011;1205;47.984;7.668;2022-08-07T06:56:58;1.03;;;1.03;;
2388;SDS011;1205;47.984;7.668;2022-08-07T06:59:26;3.87;;;1.10;;
2388;SDS011;1205;47.984;7.668;2022-08-07T07:01:56;8.83;;;1.53;;
2388;SDS011;1205;47.984;7.668;2022-08-07T07:04:23;2.13;;;1.40;;
2388;SDS011;1205;47.984;7.668;2022-08-07T07:06:49;1.00;;;1.00;;
2388;SDS011;1205;47.984;7.668;2022-08-07T07:11:48;2.83;;;1.30;;
2388;SDS011;1205;47.984;7.668;2022-08-07T07:14:22;1.40;;;1.20;;
2388;SDS011;1205;47.984;7.668;2022-08-07T07:16:50;1.20;;;1.17;;
2388;SDS011;1205;47.984;7.668;2022-08-07T07:19:20;3.97;;;1.40;;
2388;SDS011;1205;47.984;7.668;2022-08-07T07:21:51;2.30;;;1.10;;
2388;SDS011;1205;47.984;7.668;2022-08-07T07:24:19;1.17;;;1.17;;
2388;SDS011;1205;47.984;7.668;2022-08-07T07:26:45;1.13;;;1.13;;
2388;SDS011;1205;47.984;7.668;2022-08-07T07:29:12;3.27;;;1.37;;
2388;SDS011;1205;47.984;7.668;2022-08-07T07:31:40;2.40;;;1.30;;
2388;SDS011;1205;47.984;7.668;2022-08-07T07:34:12;1.50;;;1.40;;
2388;SDS011;1205;47.984;7.668;2022-08-07T07:36:42;2.93;;;1.63;;
2388;SDS011;1205;47.984;7.668;2022-08-07T07:39:09;1.53;;;1.43;;
2388;SDS011;1205;47.984;7.668;2022-08-07T07:41:36;2.70;;;1.40;;
2388;SDS011;1205;47.984;7.668;2022-08-07T07:44:05;1.20;;;1.20;;
2388;SDS011;1205;47.984;7.668;2022-08-07T07:46:34;3.77;;;1.73;;
2388;SDS011;1205;47.984;7.668;2022-08-07T07:49:01;1.70;;;1.60;;
2388;SDS011;1205;47.984;7.668;2022-08-07T07:51:28;1.60;;;1.50;;
2388;SDS011;1205;47.984;7.668;2022-08-07T07:53:56;1.50;;;1.40;;
2388;SDS011;1205;47.984;7.668;2022-08-07T07:56:23;1.60;;;1.60;;
2388;SDS011;1205;47.984;7.668;2022-08-07T07:58:50;3.70;;;1.70;;
2388;SDS011;1205;47.984;7.668;2022-08-07T08:01:18;4.13;;;1.67;;
2388;SDS011;1205;47.984;7.668;2022-08-07T08:03:45;4.20;;;1.80;;
2388;SDS011;1205;47.984;7.668;2022-08-07T08:06:13;1.40;;;1.30;;
2388;SDS011;1205;47.984;7.668;2022-08-07T08:08:38;2.60;;;1.90;;
2388;SDS011;1205;47.984;7.668;2022-08-07T08:11:07;6.37;;;2.00;;
2388;SDS011;1205;47.984;7.668;2022-08-07T08:13:35;1.73;;;1.63;;
2388;SDS011;1205;47.984;7.668;2022-08-07T08:16:05;2.30;;;2.20;;
2388;SDS011;1205;47.984;7.668;2022-08-07T08:18:32;1.73;;;1.63;;
2388;SDS011;1205;47.984;7.668;2022-08-07T08:21:00;2.10;;;2.00;;
2388;SDS011;1205;47.984;7.668;2022-08-07T08:23:30;2.47;;;2.27;;
2388;SDS011;1205;47.984;7.668;2022-08-07T08:26:17;2.50;;;1.90;;
2388;SDS011;1205;47.984;7.668;2022-08-07T08:29:03;2.07;;;1.97;;
2388;SDS011;1205;47.984;7.668;2022-08-07T08:31:32;2.33;;;1.73;;
2388;SDS011;1205;47.984;7.668;2022-08-07T08:34:00;2.30;;;1.87;;
2388;SDS011;1205;47.984;7.668;2022-08-07T08:36:28;1.97;;;1.80;;
2388;SDS011;1205;47.984;7.668;2022-08-07T08:38:56;4.20;;;1.70;;
2388;SDS011;1205;47.984;7.668;2022-08-07T08:41:30;2.03;;;1.23;;
2388;SDS011;1205;47.984;7.668;2022-08-07T08:44:18;3.50;;;1.30;;
2388;SDS011;1205;47.984;7.668;2022-08-07T08:46:49;1.43;;;1.30;;
2388;SDS011;1205;47.984;7.668;2022-08-07T08:52:24;1.90;;;1.80;;
2388;SDS011;1205;47.984;7.668;2022-08-07T08:55:20;1.50;;;1.50;;
2388;SDS011;1205;47.984;7.668;2022-08-07T08:58:01;1.77;;;1.67;;
2388;SDS011;1205;47.984;7.668;2022-08-07T09:00:45;1.60;;;1.60;;
2388;SDS011;1205;47.984;7.668;2022-08-07T09:03:21;2.00;;;1.90;;
2388;SDS011;1205;47.984;7.668;2022-08-07T09:06:05;1.80;;;1.70;;
2388;SDS011;1205;47.984;7.668;2022-08-07T09:08:40;2.20;;;1.80;;
2388;SDS011;1205;47.984;7.668;2022-08-07T09:11:34;2.33;;;1.97;;
2388;SDS011;1205;47.984;7.668;2022-08-07T09:14:13;4.23;;;2.10;;
2388;SDS011;1205;47.984;7.668;2022-08-07T09:17:03;1.60;;;1.60;;
2388;SDS011;1205;47.984;7.668;2022-08-07T09:38:46;1.83;;;1.73;;
2388;SDS011;1205;47.984;7.668;2022-08-07T09:44:12;1.40;;;1.40;;
2388;SDS011;1205;47.984;7.668;2022-08-07T09:49:58;1.90;;;1.80;;
2388;SDS011;1205;47.984;7.668;2022-08-07T09:52:48;1.80;;;1.40;;
2388;SDS011;1205;47.984;7.668;2022-08-07T09:55:20;1.80;;;1.70;;
2388;SDS011;1205;47.984;7.668;2022-08-07T10:06:20;1.83;;;1.60;;
2388;SDS011;1205;47.984;7.668;2022-08-07T10:09:03;3.13;;;1.67;;
2388;SDS011;1205;47.984;7.668;2022-08-07T10:14:23;2.30;;;1.47;;
2388;SDS011;1205;47.984;7.668;2022-08-07T10:17:15;1.47;;;1.40;;
2388;SDS011;1205;47.984;7.668;2022-08-07T10:20:00;1.80;;;1.70;;
2388;SDS011;1205;47.984;7.668;2022-08-07T10:30:58;1.70;;;1.60;;
2388;SDS011;1205;47.984;7.668;2022-08-07T10:36:37;5.57;;;1.93;;
2388;SDS011;1205;47.984;7.668;2022-08-07T10:39:28;1.93;;;1.80;;
2388;SDS011;1205;47.984;7.668;2022-08-07T10:42:06;1.93;;;1.83;;
2388;SDS011;1205;47.984;7.668;2022-08-07T10:45:04;2.20;;;1.63;;
2388;SDS011;1205;47.984;7.668;2022-08-07T10:47:48;2.87;;;1.90;;
2388;SDS011;1205;47.984;7.668;2022-08-07T10:50:23;1.80;;;1.70;;
2388;SDS011;1205;47.984;7.668;2022-08-07T11:00:56;1.90;;;1.60;;
2388;SDS011;1205;47.984;7.668;2022-08-07T11:03:48;2.60;;;1.70;;
2388;SDS011;1205;47.984;7.668;2022-08-07T11:06:32;1.80;;;1.67;;
2388;SDS011;1205;47.984;7.668;2022-08-07T11:09:09;1.80;;;1.40;;
2388;SDS011;1205;47.984;7.668;2022-08-07T11:11:43;5.90;;;1.63;;
2388;SDS011;1205;47.984;7.668;2022-08-07T11:14:10;2.23;;;1.50;;
2388;SDS011;1205;47.984;7.668;2022-08-07T11:17:00;2.50;;;1.57;;
2388;SDS011;1205;47.984;7.668;2022-08-07T11:19:37;3.23;;;1.93;;
2388;SDS011;1205;47.984;7.668;2022-08-07T11:22:26;1.50;;;1.50;;
2388;SDS011;1205;47.984;7.668;2022-08-07T11:30:02;2.07;;;1.97;;
2388;SDS011;1205;47.984;7.668;2022-08-07T11:35:08;3.37;;;2.00;;
2388;SDS011;1205;47.984;7.668;2022-08-07T11:40:28;1.70;;;1.60;;
2388;SDS011;1205;47.984;7.668;2022-08-07T11:59:18;1.93;;;1.80;;
2388;SDS011;1205;47.984;7.668;2022-08-07T12:04:59;1.63;;;1.53;;
2388;SDS011;1205;47.984;7.668;2022-08-07T12:07:28;2.97;;;1.40;;
2388;SDS011;1205;47.984;7.668;2022-08-07T12:09:58;3.97;;;1.60;;
2388;SDS011;1205;47.984;7.668;2022-08-07T12:12:36;13.00;;;2.40;;
2388;SDS011;1205;47.984;7.668;2022-08-07T12:17:47;3.20;;;2.00;;
2388;SDS011;1205;47.984;7.668;2022-08-07T12:20:26;1.70;;;1.60;;
2388;SDS011;1205;47.984;7.668;2022-08-07T12:23:18;1.50;;;1.50;;
2388;SDS011;1205;47.984;7.668;2022-08-07T12:26:04;1.50;;;1.40;;
2388;SDS011;1205;47.984;7.668;2022-08-07T12:34:20;1.90;;;1.67;;
2388;SDS011;1205;47.984;7.668;2022-08-07T12:36:47;1.33;;;1.30;;
2388;SDS011;1205;47.984;7.668;2022-08-07T12:39:16;1.70;;;1.60;;
2388;SDS011;1205;47.984;7.668;2022-08-07T12:41:44;1.70;;;1.60;;
2388;SDS011;1205;47.984;7.668;2022-08-07T12:44:10;1.70;;;1.60;;
2388;SDS011;1205;47.984;7.668;2022-08-07T12:47:01;2.10;;;2.00;;
2388;SDS011;1205;47.984;7.668;2022-08-07T12:49:36;1.20;;;1.20;;
2388;SDS011;1205;47.984;7.668;2022-08-07T12:52:05;5.43;;;1.60;;
2388;SDS011;1205;47.984;7.668;2022-08-07T12:54:39;2.60;;;1.43;;
2388;SDS011;1205;47.984;7.668;2022-08-07T12:57:17;1.40;;;1.40;;
2388;SDS011;1205;47.984;7.668;2022-08-07T12:59:49;1.57;;;1.47;;
2388;SDS011;1205;47.984;7.668;2022-08-07T13:05:16;1.50;;;1.50;;
2388;SDS011;1205;47.984;7.668;2022-08-07T13:10:42;4.23;;;1.60;;
2388;SDS011;1205;47.984;7.668;2022-08-07T13:13:35;1.47;;;1.37;;
2388;SDS011;1205;47.984;7.668;2022-08-07T13:16:26;2.93;;;1.50;;
2388;SDS011;1205;47.984;7.668;2022-08-07T13:19:02;1.57;;;1.47;;
2388;SDS011;1205;47.984;7.668;2022-08-07T13:22:07;1.60;;;1.50;;
2388;SDS011;1205;47.984;7.668;2022-08-07T13:25:23;3.57;;;1.80;;
2388;SDS011;1205;47.984;7.668;2022-08-07T13:27:43;3.00;;;1.90;;
2388;SDS011;1205;47.984;7.668;2022-08-07T13:30:25;1.57;;;1.57;;
2388;SDS011;1205;47.984;7.668;2022-08-07T13:35:53;1.30;;;1.30;;
2388;SDS011;1205;47.984;7.668;2022-08-07T13:43:52;2.33;;;2.13;;
2388;SDS011;1205;47.984;7.668;2022-08-07T13:46:20;3.37;;;1.60;;
2388;SDS011;1205;47.984;7.668;2022-08-07T13:48:52;1.57;;;1.47;;
2388;SDS011;1205;47.984;7.668;2022-08-07T13:51:22;1.60;;;1.60;;
2388;SDS011;1205;47.984;7.668;2022-08-07T13:53:52;1.30;;;1.30;;
2388;SDS011;1205;47.984;7.668;2022-08-07T13:56:23;4.53;;;1.90;;
2388;SDS011;1205;47.984;7.668;2022-08-07T13:58:50;1.80;;;1.70;;
2388;SDS011;1205;47.984;7.668;2022-08-07T14:01:28;2.70;;;1.83;;
2388;SDS011;1205;47.984;7.668;2022-08-07T14:04:07;1.87;;;1.77;;
2388;SDS011;1205;47.984;7.668;2022-08-07T14:06:36;1.53;;;1.50;;
2388;SDS011;1205;47.984;7.668;2022-08-07T14:09:06;1.73;;;1.63;;
2388;SDS011;1205;47.984;7.668;2022-08-07T14:11:35;1.77;;;1.67;;
2388;SDS011;1205;47.984;7.668;2022-08-07T14:14:09;1.50;;;1.40;;
2388;SDS011;1205;47.984;7.668;2022-08-07T14:16:39;2.50;;;1.63;;
2388;SDS011;1205;47.984;7.668;2022-08-07T14:19:16;5.07;;;1.60;;
2388;SDS011;1205;47.984;7.668;2022-08-07T14:21:59;1.93;;;1.77;;
2388;SDS011;1205;47.984;7.668;2022-08-07T14:24:38;1.30;;;1.30;;
2388;SDS011;1205;47.984;7.668;2022-08-07T14:27:05;2.87;;;1.80;;
2388;SDS011;1205;47.984;7.668;2022-08-07T14:29:37;2.00;;;1.90;;
2388;SDS011;1205;47.984;7.668;2022-08-07T14:32:07;1.80;;;1.80;;
2388;SDS011;1205;47.984;7.668;2022-08-07T14:34:39;1.93;;;1.60;;
2388;SDS011;1205;47.984;7.668;2022-08-07T14:37:08;2.70;;;1.70;;
2388;SDS011;1205;47.984;7.668;2022-08-07T14:39:35;2.63;;;1.43;;
2388;SDS011;1205;47.984;7.668;2022-08-07T14:42:04;1.60;;;1.50;;
2388;SDS011;1205;47.984;7.668;2022-08-07T14:44:33;7.93;;;1.67;;
2388;SDS011;1205;47.984;7.668;2022-08-07T14:47:01;3.60;;;1.50;;
2388;SDS011;1205;47.984;7.668;2022-08-07T14:49:30;4.20;;;1.70;;
2388;SDS011;1205;47.984;7.668;2022-08-07T14:51:58;2.40;;;1.53;;
2388;SDS011;1205;47.984;7.668;2022-08-07T14:54:29;2.30;;;1.50;;
2388;SDS011;1205;47.984;7.668;2022-08-07T14:56:57;1.63;;;1.47;;
2388;SDS011;1205;47.984;7.668;2022-08-07T14:59:25;2.57;;;1.67;;
2388;SDS011;1205;47.984;7.668;2022-08-07T15:01:53;2.13;;;1.83;;
2388;SDS011;1205;47.984;7.668;2022-08-07T15:04:22;2.13;;;2.03;;
2388;SDS011;1205;47.984;7.668;2022-08-07T15:06:48;2.00;;;2.00;;
2388;SDS011;1205;47.984;7.668;2022-08-07T15:09:16;1.47;;;1.47;;
2388;SDS011;1205;47.984;7.668;2022-08-07T15:11:56;2.07;;;1.97;;
2388;SDS011;1205;47.984;7.668;2022-08-07T15:14:29;2.63;;;2.20;;
2388;SDS011;1205;47.984;7.668;2022-08-07T15:16:57;6.73;;;1.97;;
2388;SDS011;1205;47.984;7.668;2022-08-07T15:19:27;1.70;;;1.70;;
2388;SDS011;1205;47.984;7.668;2022-08-07T15:21:56;13.47;;;1.90;;
2388;SDS011;1205;47.984;7.668;2022-08-07T15:24:33;1.53;;;1.43;;
2388;SDS011;1205;47.984;7.668;2022-08-07T15:27:05;2.50;;;1.47;;
2388;SDS011;1205;47.984;7.668;2022-08-07T15:29:38;3.17;;;1.40;;
2388;SDS011;1205;47.984;7.668;2022-08-07T15:32:05;1.70;;;1.60;;
2388;SDS011;1205;47.984;7.668;2022-08-07T15:34:36;3.33;;;1.50;;
2388;SDS011;1205;47.984;7.668;2022-08-07T15:37:06;1.60;;;1.60;;
2388;SDS011;1205;47.984;7.668;2022-08-07T15:39:37;2.83;;;1.83;;
2388;SDS011;1205;47.984;7.668;2022-08-07T15:42:05;6.83;;;1.90;;
2388;SDS011;1205;47.984;7.668;2022-08-07T15:44:45;6.43;;;1.60;;
2388;SDS011;1205;47.984;7.668;2022-08-07T15:47:14;3.33;;;1.53;;
2388;SDS011;1205;47.984;7.668;2022-08-07T15:49:42;5.53;;;1.30;;
2388;SDS011;1205;47.984;7.668;2022-08-07T15:52:12;6.33;;;1.50;;
2388;SDS011;1205;47.984;7.668;2022-08-07T15:54:44;2.70;;;1.63;;
2388;SDS011;1205;47.984;7.668;2022-08-07T15:57:13;1.80;;;1.53;;
2388;SDS011;1205;47.984;7.668;2022-08-07T15:59:50;2.30;;;1.30;;
2388;SDS011;1205;47.984;7.668;2022-08-07T16:02:37;2.00;;;1.90;;
2388;SDS011;1205;47.984;7.668;2022-08-07T16:05:07;1.50;;;1.50;;
2388;SDS011;1205;47.984;7.668;2022-08-07T16:07:45;2.20;;;1.70;;
2388;SDS011;1205;47.984;7.668;2022-08-07T16:10:19;3.23;;;1.20;;
2388;SDS011;1205;47.984;7.668;2022-08-07T16:15:49;1.53;;;1.43;;
2388;SDS011;1205;47.984;7.668;2022-08-07T16:20:58;3.00;;;2.10;;
2388;SDS011;1205;47.984;7.668;2022-08-07T16:29:00;1.33;;;1.23;;
2388;SDS011;1205;47.984;7.668;2022-08-07T16:34:35;3.50;;;1.70;;
2388;SDS011;1205;47.984;7.668;2022-08-07T16:37:12;5.23;;;1.50;;
2388;SDS011;1205;47.984;7.668;2022-08-07T16:40:02;1.83;;;1.10;;
2388;SDS011;1205;47.984;7.668;2022-08-07T16:59:00;1.83;;;1.10;;
2388;SDS011;1205;47.984;7.668;2022-08-07T17:01:35;1.70;;;1.17;;
2388;SDS011;1205;47.984;7.668;2022-08-07T17:04:09;1.00;;;1.00;;
2388;SDS011;1205;47.984;7.668;2022-08-07T17:07:50;1.63;;;1.53;;
2388;SDS011;1205;47.984;7.668;2022-08-07T17:09:51;2.50;;;1.37;;
2388;SDS011;1205;47.984;7.668;2022-08-07T17:15:28;1.80;;;1.10;;
2388;SDS011;1205;47.984;7.668;2022-08-07T17:18:13;1.00;;;1.00;;
2388;SDS011;1205;47.984;7.668;2022-08-07T17:20:47;1.43;;;1.33;;
2388;SDS011;1205;47.984;7.668;2022-08-07T17:26:16;1.83;;;1.20;;
2388;SDS011;1205;47.984;7.668;2022-08-07T17:31:22;1.90;;;1.70;;
2388;SDS011;1205;47.984;7.668;2022-08-07T17:36:41;1.60;;;0.90;;
2388;SDS011;1205;47.984;7.668;2022-08-07T17:39:13;4.37;;;1.63;;
2388;SDS011;1205;47.984;7.668;2022-08-07T17:41:52;2.87;;;1.00;;
2388;SDS011;1205;47.984;7.668;2022-08-07T17:47:03;2.10;;;0.90;;
2388;SDS011;1205;47.984;7.668;2022-08-07T17:49:35;1.20;;;1.20;;
2388;SDS011;1205;47.984;7.668;2022-08-07T17:57:32;5.80;;;1.10;;
2388;SDS011;1205;47.984;7.668;2022-08-07T18:00:09;2.00;;;1.10;;
2388;SDS011;1205;47.984;7.668;2022-08-07T18:02:40;3.77;;;0.93;;
2388;SDS011;1205;47.984;7.668;2022-08-07T18:05:30;7.70;;;1.00;;
2388;SDS011;1205;47.984;7.668;2022-08-07T18:08:19;3.30;;;1.17;;
2388;SDS011;1205;47.984;7.668;2022-08-07T18:16:32;1.00;;;0.90;;
2388;SDS011;1205;47.984;7.668;2022-08-07T18:19:07;5.50;;;1.30;;
2388;SDS011;1205;47.984;7.668;2022-08-07T18:21:41;4.20;;;0.80;;
2388;SDS011;1205;47.984;7.668;2022-08-07T18:27:13;0.90;;;0.90;;
2388;SDS011;1205;47.984;7.668;2022-08-07T18:37:57;1.50;;;1.33;;
2388;SDS011;1205;47.984;7.668;2022-08-07T18:45:45;1.90;;;1.10;;
2388;SDS011;1205;47.984;7.668;2022-08-07T18:48:23;1.23;;;1.13;;
2388;SDS011;1205;47.984;7.668;2022-08-07T19:01:41;5.13;;;0.90;;
2388;SDS011;1205;47.984;7.668;2022-08-07T19:04:25;0.80;;;0.80;;
2388;SDS011;1205;47.984;7.668;2022-08-07T19:07:00;1.33;;;0.70;;
2388;SDS011;1205;47.984;7.668;2022-08-07T19:10:34;3.50;;;1.00;;
2388;SDS011;1205;47.984;7.668;2022-08-07T19:15:12;0.60;;;0.60;;
2388;SDS011;1205;47.984;7.668;2022-08-07T19:17:57;0.80;;;0.80;;
2388;SDS011;1205;47.984;7.668;2022-08-07T19:23:27;0.90;;;0.90;;
2388;SDS011;1205;47.984;7.668;2022-08-07T19:26:04;1.27;;;0.87;;